CheckWX is a tool to help pilots better visualize weather data.  It is not intended as a substitute for an official pre-flight weather briefing.

21:29:38 UTC

YSSY METAR
Sydney Kingsford Smith International Airport
Sydney, Australia
Current

30 mins ago

YSSY 162100Z 32009KT CAVOK 10/05 Q1018 FM2100 MOD TURB BLW 5000FT
Observed
Jul-16 @ 21:00 UTC
Wind
  • 320° at 9 KTS
Visibility
10,000+ meters
Flight Rules
VFR
Cloud Levels
  • Clear skies
Temperature
10°C / 50°F
Dewpoint
C / 41°F
Humidity
71%
Altimeter
30.06" Hg
Pressure
1017.92 hPa
Previous

60 mins ago

YSSY 162030Z 31007KT CAVOK 11/06 Q1018 FM2030 MOD TURB BLW 5000FT
Observed
Jul-16 @ 20:30 UTC
Wind
  • 310° at 7 KTS
Visibility
10,000+ meters
Flight Rules
VFR
Cloud Levels
  • Clear skies
Temperature
11°C / 52°F
Dewpoint
C / 43°F
Humidity
72%
Altimeter
30.06" Hg
Pressure
1017.92 hPa
Previous

1 hour ago

YSSY 162000Z 31007KT CAVOK 10/05 Q1018 FM2000 MOD TURB BLW 5000FT
Observed
Jul-16 @ 20:00 UTC
Wind
  • 310° at 7 KTS
Visibility
10,000+ meters
Flight Rules
VFR
Cloud Levels
  • Clear skies
Temperature
10°C / 50°F
Dewpoint
C / 41°F
Humidity
71%
Altimeter
30.06" Hg
Pressure
1017.92 hPa